Time;durP1;ratioP1;P1;durP2;ratioP2;P2;SDS_P1;SDS_P2;PMS_P1;PMS_P2;Temp;Humidity;BMP_temperature;BMP_pressure;BME280_temperature;BME280_humidity;BME280_pressure;Samples;Min_cycle;Max_cycle;Signal;HPM_P1;HPM_P2
2022/07/12 00:01:32;;;;;;;;;;;;;;;;;;5068139;28;19916;-44
2022/07/12 00:03:58;;;;;;;;;;;;;;;;;;5067165;28;19917;-43
2022/07/12 00:06:24;;;;;;;;;;;;;;;;;;5068039;28;19909;-43
2022/07/12 00:08:50;;;;;;;;;;;;;;;;;;5066099;28;19954;-44
2022/07/12 00:11:16;;;;;;;;;;;;;;;;;;5053112;28;19979;-43
2022/07/12 00:13:42;;;;;;;;;;;;;;;;;;5066167;28;19912;-43
2022/07/12 00:16:08;;;;;;;;;;;;;;;;;;5067943;28;19924;-42
2022/07/12 00:18:34;;;;;;;;;;;;;;;;;;5067398;28;19951;-43
2022/07/12 00:20:59;;;;;;;;;;;;;;;;;;5068005;28;19913;-44
2022/07/12 00:23:26;;;;;;;;;;;;;;;;;;5068325;28;19912;-44
2022/07/12 00:25:52;;;;;;;;;;;;;;;;;;5067308;28;19913;-42
2022/07/12 00:28:18;;;;;;;;;;;;;;;;;;5067881;28;19950;-43
2022/07/12 00:30:44;;;;;;;;;;;;;;;;;;5068445;28;19908;-42
2022/07/12 00:33:10;;;;;;;;;;;;;;;;;;5067608;28;19961;-43
2022/07/12 00:35:36;;;;;;;;;;;;;;;;;;5068034;28;19923;-42
2022/07/12 00:38:02;;;;;;;;;;;;;;;;;;5067782;28;19912;-43
2022/07/12 00:40:28;;;;;;;;;;;;;;;;;;5065409;28;19955;-42
2022/07/12 00:42:53;;;;;;;;;;;;;;;;;;5067319;28;19920;-42
2022/07/12 00:45:19;;;;;;;;;;;;;;;;;;5067950;28;19909;-42
2022/07/12 00:47:45;;;;;;;;;;;;;;;;;;5054707;28;19916;-42
2022/07/12 00:50:11;;;;;;;;;;;;;;;;;;5048149;28;19919;-42
2022/07/12 00:52:38;;;;;;;;;;;;;;;;;;5051531;28;19909;-43
2022/07/12 00:55:04;;;;;;;;;;;;;;;;;;5066357;28;19923;-42
2022/07/12 00:57:30;;;;;;;;;;;;;;;;;;5067416;28;19908;-43
2022/07/12 00:59:56;;;;;;;;;;;;;;;;;;5066958;28;19919;-42
2022/07/12 01:02:23;;;;;;;;;;;;;;;;;;5066608;28;19930;-42
2022/07/12 01:04:48;;;;;;;;;;;;;;;;;;5066890;28;19919;-43
2022/07/12 01:07:15;;;;;;;;;;;;;;;;;;5067785;28;20371;-42
2022/07/12 01:09:42;;;;;;;;;;;;;;;;;;5066883;28;19922;-44
2022/07/12 01:12:08;;;;;;;;;;;;;;;;;;5066734;28;19908;-43
2022/07/12 01:14:34;;;;;;;;;;;;;;;;;;5067168;28;19919;-44
2022/07/12 01:17:00;;;;;;;;;;;;;;;;;;5065973;28;20233;-46
2022/07/12 01:19:25;;;;;;;;;;;;;;;;;;5067089;28;20337;-44
2022/07/12 01:21:51;;;;;;;;;;;;;;;;;;5066824;28;20411;-45
2022/07/12 01:24:17;;;;;;;;;;;;;;;;;;5067027;28;19912;-44
2022/07/12 01:26:43;;;;;;;;;;;;;;;;;;5067324;28;19999;-44
2022/07/12 01:29:10;;;;;;;;;;;;;;;;;;5066973;28;20326;-45
2022/07/12 01:31:37;;;;;;;;;;;;;;;;;;5065368;28;19940;-44
2022/07/12 01:34:03;;;;;;;;;;;;;;;;;;5062703;28;20379;-44
2022/07/12 01:36:29;;;;;;;;;;;;;;;;;;5067072;28;19966;-46
2022/07/12 01:38:55;;;;;;;;;;;;;;;;;;5048361;28;19908;-48
2022/07/12 01:41:21;;;;;;;;;;;;;;;;;;5067043;28;19920;-48
2022/07/12 01:43:47;;;;;;;;;;;;;;;;;;5066522;28;19917;-44
2022/07/12 01:46:13;;;;;;;;;;;;;;;;;;5069534;28;19924;-45
2022/07/12 01:48:39;;;;;;;;;;;;;;;;;;5086961;28;20379;-44
2022/07/12 01:51:05;;;;;;;;;;;;;;;;;;5086510;28;19919;-44
2022/07/12 01:53:31;;;;;;;;;;;;;;;;;;5086499;28;19943;-43
2022/07/12 01:55:58;;;;;;;;;;;;;;;;;;5086807;28;19916;-44
2022/07/12 01:58:24;;;;;;;;;;;;;;;;;;5087271;28;19908;-46
2022/07/12 02:00:52;;;;;;;;;;;;;;;;;;5086540;28;19908;-45
2022/07/12 02:03:17;;;;;;;;;;;;;;;;;;5086847;28;19917;-43
2022/07/12 02:05:43;;;;;;;;;;;;;;;;;;5087061;28;20361;-45
2022/07/12 02:08:09;;;;;;;;;;;;;;;;;;5068441;28;20379;-43
2022/07/12 02:10:35;;;;;;;;;;;;;;;;;;5086861;28;19966;-46
2022/07/12 02:13:01;;;;;;;;;;;;;;;;;;5088784;28;19938;-43
2022/07/12 02:15:27;;;;;;;;;;;;;;;;;;5090778;28;20391;-44
2022/07/12 02:17:53;;;;;;;;;;;;;;;;;;5090542;28;19958;-44
2022/07/12 02:20:20;;;;;;;;;;;;;;;;;;5090821;28;20363;-43
2022/07/12 02:22:47;;;;;;;;;;;;;;;;;;5090923;28;19962;-44
2022/07/12 02:25:12;;;;;;;;;;;;;;;;;;5091027;28;19965;-44
2022/07/12 02:27:39;;;;;;;;;;;;;;;;;;5090961;28;19912;-45
2022/07/12 02:30:05;;;;;;;;;;;;;;;;;;5077362;28;20736;-44
2022/07/12 02:32:31;;;;;;;;;;;;;;;;;;5070602;28;19955;-44
2022/07/12 02:34:57;;;;;;;;;;;;;;;;;;5069888;28;20455;-43
2022/07/12 02:37:23;;;;;;;;;;;;;;;;;;5070204;28;19912;-44
2022/07/12 02:39:49;;;;;;;;;;;;;;;;;;5069933;28;19916;-44
2022/07/12 02:42:16;;;;;;;;;;;;;;;;;;5069410;28;19916;-43
2022/07/12 02:44:42;;;;;;;;;;;;;;;;;;5069216;28;19948;-45
2022/07/12 02:47:07;;;;;;;;;;;;;;;;;;5068376;28;19983;-44
2022/07/12 02:49:33;;;;;;;;;;;;;;;;;;5068571;28;19908;-44
2022/07/12 02:51:59;;;;;;;;;;;;;;;;;;5068386;28;20021;-43
2022/07/12 02:54:25;;;;;;;;;;;;;;;;;;5068780;28;19952;-44
2022/07/12 02:56:51;;;;;;;;;;;;;;;;;;5068635;28;20307;-43
2022/07/12 02:59:17;;;;;;;;;;;;;;;;;;5068872;28;20171;-45
2022/07/12 03:01:43;;;;;;;;;;;;;;;;;;5068741;28;19913;-44
2022/07/12 03:04:09;;;;;;;;;;;;;;;;;;5068466;28;20548;-43
2022/07/12 03:06:35;;;;;;;;;;;;;;;;;;5068733;28;19967;-44
2022/07/12 03:09:02;;;;;;;;;;;;;;;;;;5068173;28;20402;-44
2022/07/12 03:11:28;;;;;;;;;;;;;;;;;;5068576;28;19952;-44
2022/07/12 03:13:53;;;;;;;;;;;;;;;;;;5067877;28;19982;-43
2022/07/12 03:16:19;;;;;;;;;;;;;;;;;;5067549;28;20544;-45
2022/07/12 03:18:45;;;;;;;;;;;;;;;;;;5068014;28;20438;-43
2022/07/12 03:21:11;;;;;;;;;;;;;;;;;;5068607;28;20008;-43
2022/07/12 03:23:37;;;;;;;;;;;;;;;;;;5067674;28;20117;-44
2022/07/12 03:26:03;;;;;;;;;;;;;;;;;;5068223;28;19913;-46
2022/07/12 03:28:29;;;;;;;;;;;;;;;;;;5050193;28;19908;-43
2022/07/12 03:30:55;;;;;;;;;;;;;;;;;;5068321;28;19943;-43
2022/07/12 03:33:21;;;;;;;;;;;;;;;;;;5067709;28;20364;-44
2022/07/12 03:35:47;;;;;;;;;;;;;;;;;;5067782;28;19931;-43
2022/07/12 03:38:13;;;;;;;;;;;;;;;;;;5068108;28;19913;-46
2022/07/12 03:40:39;;;;;;;;;;;;;;;;;;5005019;28;1798888;-44
2022/07/12 03:43:05;;;;;;;;;;;;;;;;;;5069205;28;19913;-47
2022/07/12 03:45:32;;;;;;;;;;;;;;;;;;5068992;28;19989;-44
2022/07/12 03:47:58;;;;;;;;;;;;;;;;;;5068756;28;19916;-45
2022/07/12 03:50:24;;;;;;;;;;;;;;;;;;5068980;28;19909;-44
2022/07/12 03:52:50;;;;;;;;;;;;;;;;;;5068793;28;19991;-43
2022/07/12 03:55:16;;;;;;;;;;;;;;;;;;5068725;28;19999;-45
2022/07/12 03:57:42;;;;;;;;;;;;;;;;;;5068911;28;19912;-43
2022/07/12 04:00:12;;;;;;;;;;;;;;;;;;5069131;28;19916;-44
2022/07/12 04:02:39;;;;;;;;;;;;;;;;;;5068097;28;19924;-44
2022/07/12 04:05:05;;;;;;;;;;;;;;;;;;5068726;28;19955;-44
2022/07/12 04:07:31;;;;;;;;;;;;;;;;;;5050238;28;19963;-43
2022/07/12 04:09:57;;;;;;;;;;;;;;;;;;5069118;28;19948;-43
2022/07/12 04:12:24;;;;;;;;;;;;;;;;;;5068584;28;20429;-44
2022/07/12 04:14:50;;;;;;;;;;;;;;;;;;5067900;28;19982;-44
2022/07/12 04:17:16;;;;;;;;;;;;;;;;;;5068000;28;20379;-43
2022/07/12 04:19:42;;;;;;;;;;;;;;;;;;5068637;28;20379;-43
2022/07/12 04:22:08;;;;;;;;;;;;;;;;;;5068088;28;19974;-43
2022/07/12 04:24:34;;;;;;;;;;;;;;;;;;5068105;28;20363;-44
2022/07/12 04:27:00;;;;;;;;;;;;;;;;;;5068327;28;19909;-43
2022/07/12 04:29:25;;;;;;;;;;;;;;;;;;5068071;28;19931;-43
2022/07/12 04:31:51;;;;;;;;;;;;;;;;;;5067933;28;19951;-45
2022/07/12 04:34:18;;;;;;;;;;;;;;;;;;5067561;28;19912;-45
2022/07/12 04:36:44;;;;;;;;;;;;;;;;;;5067617;28;19916;-44
2022/07/12 04:39:10;;;;;;;;;;;;;;;;;;5067877;28;19934;-43
2022/07/12 04:41:37;;;;;;;;;;;;;;;;;;5067656;28;20014;-45
2022/07/12 04:44:04;;;;;;;;;;;;;;;;;;5068306;28;19935;-43
2022/07/12 04:46:30;;;;;;;;;;;;;;;;;;5067438;28;19908;-45
2022/07/12 04:48:56;;;;;;;;;;;;;;;;;;5067868;28;20337;-46
2022/07/12 04:51:21;;;;;;;;;;;;;;;;;;5067538;28;19943;-44
2022/07/12 04:53:48;;;;;;;;;;;;;;;;;;5067507;28;19919;-45
2022/07/12 04:56:14;;;;;;;;;;;;;;;;;;5067884;28;20322;-44
2022/07/12 04:58:40;;;;;;;;;;;;;;;;;;5067531;28;19908;-45
2022/07/12 05:01:07;;;;;;;;;;;;;;;;;;5067648;28;19912;-44
2022/07/12 05:03:33;;;;;;;;;;;;;;;;;;5066950;28;20246;-44
2022/07/12 05:05:59;;;;;;;;;;;;;;;;;;5067280;28;19913;-43
2022/07/12 05:08:25;;;;;;;;;;;;;;;;;;5067557;28;19909;-45
2022/07/12 05:10:51;;;;;;;;;;;;;;;;;;5067366;28;20294;-44
2022/07/12 05:13:18;;;;;;;;;;;;;;;;;;5067021;28;19912;-44
2022/07/12 05:15:44;;;;;;;;;;;;;;;;;;5067180;28;20425;-43
2022/07/12 05:18:10;;;;;;;;;;;;;;;;;;5067438;28;20155;-43
2022/07/12 05:20:36;;;;;;;;;;;;;;;;;;5067042;28;20003;-44
2022/07/12 05:23:02;;;;;;;;;;;;;;;;;;5067109;28;20011;-44
2022/07/12 05:25:28;;;;;;;;;;;;;;;;;;5066919;28;19913;-44
2022/07/12 05:27:54;;;;;;;;;;;;;;;;;;5067407;28;19966;-43
2022/07/12 05:30:21;;;;;;;;;;;;;;;;;;5066989;28;20537;-44
2022/07/12 05:32:47;;;;;;;;;;;;;;;;;;5066706;28;20363;-44
2022/07/12 05:35:14;;;;;;;;;;;;;;;;;;5067290;28;20380;-44
2022/07/12 05:37:40;;;;;;;;;;;;;;;;;;5066829;28;20402;-43
2022/07/12 05:40:05;;;;;;;;;;;;;;;;;;5067065;28;20163;-44
2022/07/12 05:42:31;;;;;;;;;;;;;;;;;;5066583;28;19924;-44
2022/07/12 05:44:57;;;;;;;;;;;;;;;;;;5066886;28;19920;-44
2022/07/12 05:47:23;;;;;;;;;;;;;;;;;;5066672;28;19913;-43
2022/07/12 05:49:49;;;;;;;;;;;;;;;;;;5066529;28;20570;-44
2022/07/12 05:54:59;;;;;;;;;;;;;;;;;;5066640;28;20171;-44
2022/07/12 05:57:25;;;;;;;;;;;;;;;;;;5066528;28;19908;-43
2022/07/12 05:59:51;;;;;;;;;;;;;;;;;;5066634;28;20288;-44
2022/07/12 06:02:18;;;;;;;;;;;;;;;;;;5066613;28;20027;-41
2022/07/12 06:04:44;;;;;;;;;;;;;;;;;;5067082;28;19928;-41
2022/07/12 06:07:10;;;;;;;;;;;;;;;;;;5066729;28;19904;-41
2022/07/12 06:09:37;;;;;;;;;;;;;;;;;;5066359;28;19909;-41
2022/07/12 06:12:03;;;;;;;;;;;;;;;;;;5066720;28;20449;-41
2022/07/12 06:14:29;;;;;;;;;;;;;;;;;;5066064;28;19985;-40
2022/07/12 06:16:55;;;;;;;;;;;;;;;;;;5049473;28;20532;-40
2022/07/12 06:19:23;;;;;;;;;;;;;;;;;;5088377;28;19914;-40
2022/07/12 06:21:49;;;;;;;;;;;;;;;;;;5087591;28;19965;-40
2022/07/12 06:24:15;;;;;;;;;;;;;;;;;;5087997;28;19916;-40
2022/07/12 06:26:41;;;;;;;;;;;;;;;;;;5087947;28;19908;-40
2022/07/12 06:29:06;;;;;;;;;;;;;;;;;;5068356;28;19912;-40
2022/07/12 06:31:32;;;;;;;;;;;;;;;;;;5065954;28;19920;-40
2022/07/12 06:33:58;;;;;;;;;;;;;;;;;;5067560;28;19912;-40
2022/07/12 06:36:24;;;;;;;;;;;;;;;;;;5066790;28;19921;-40
2022/07/12 06:38:50;;;;;;;;;;;;;;;;;;5066386;28;19919;-41
2022/07/12 06:41:16;;;;;;;;;;;;;;;;;;5067739;28;19917;-40
2022/07/12 06:43:42;;;;;;;;;;;;;;;;;;5067860;28;19913;-41
2022/07/12 06:46:08;;;;;;;;;;;;;;;;;;5067687;28;19912;-40
2022/07/12 06:48:34;;;;;;;;;;;;;;;;;;5067393;28;19952;-41
2022/07/12 06:51:00;;;;;;;;;;;;;;;;;;5067796;28;19908;-41
2022/07/12 06:53:26;;;;;;;;;;;;;;;;;;5067388;28;19982;-40
2022/07/12 06:55:52;;;;;;;;;;;;;;;;;;5066514;28;19917;-40
2022/07/12 06:58:18;;;;;;;;;;;;;;;;;;5068605;28;19952;-40
2022/07/12 07:00:44;;;;;;;;;;;;;;;;;;5071197;28;19913;-41
2022/07/12 07:03:11;;;;;;;;;;;;;;;;;;5069750;28;19916;-40
2022/07/12 07:05:37;;;;;;;;;;;;;;;;;;5069443;28;19958;-41
2022/07/12 07:08:03;;;;;;;;;;;;;;;;;;5069463;28;19958;-41
2022/07/12 07:10:30;;;;;;;;;;;;;;;;;;5049343;28;20127;-41
2022/07/12 07:12:56;;;;;;;;;;;;;;;;;;5071924;28;19909;-41
2022/07/12 07:15:21;;;;;;;;;;;;;;;;;;5070287;28;19957;-41
2022/07/12 07:17:47;;;;;;;;;;;;;;;;;;5069864;28;19912;-41
2022/07/12 07:20:13;;;;;;;;;;;;;;;;;;5068408;28;19920;-41
2022/07/12 07:22:39;;;;;;;;;;;;;;;;;;5069862;28;19916;-41
2022/07/12 07:25:05;;;;;;;;;;;;;;;;;;5070149;28;19924;-41
2022/07/12 07:27:31;;;;;;;;;;;;;;;;;;5070396;28;19934;-41
2022/07/12 07:32:42;;;;;;;;;;;;;;;;;;5070462;28;19954;-41
2022/07/12 07:35:08;;;;;;;;;;;;;;;;;;5070187;28;19916;-41
2022/07/12 07:37:34;;;;;;;;;;;;;;;;;;5070104;28;19919;-41
2022/07/12 07:40:00;;;;;;;;;;;;;;;;;;5052459;28;19912;-41
2022/07/12 07:42:27;;;;;;;;;;;;;;;;;;5069715;28;19917;-41
2022/07/12 07:44:53;;;;;;;;;;;;;;;;;;5070023;28;20418;-41
2022/07/12 07:47:19;;;;;;;;;;;;;;;;;;5070308;28;20221;-41
2022/07/12 07:49:44;;;;;;;;;;;;;;;;;;5069756;28;20030;-41
2022/07/12 07:52:10;;;;;;;;;;;;;;;;;;5070274;28;20719;-40
2022/07/12 07:54:36;;;;;;;;;;;;;;;;;;5069929;28;19912;-41
2022/07/12 07:57:02;;;;;;;;;;;;;;;;;;5068355;28;19913;-41
2022/07/12 07:59:29;;;;;;;;;;;;;;;;;;5069057;28;19970;-41
2022/07/12 08:01:55;;;;;;;;;;;;;;;;;;5069580;28;19979;-41
2022/07/12 08:04:21;;;;;;;;;;;;;;;;;;5062582;28;20379;-41
2022/07/12 08:06:47;;;;;;;;;;;;;;;;;;5069206;28;19935;-41
2022/07/12 08:09:13;;;;;;;;;;;;;;;;;;5056553;28;19912;-41
2022/07/12 08:11:39;;;;;;;;;;;;;;;;;;5049018;28;19936;-41
2022/07/12 08:14:05;;;;;;;;;;;;;;;;;;5058751;28;21000;-41
2022/07/12 08:16:30;;;;;;;;;;;;;;;;;;5065423;28;19917;-41
2022/07/12 08:18:56;;;;;;;;;;;;;;;;;;5061301;28;19913;-41
2022/07/12 08:21:22;;;;;;;;;;;;;;;;;;5067345;28;19912;-41
2022/07/12 08:23:48;;;;;;;;;;;;;;;;;;5069219;28;20445;-41
2022/07/12 08:26:14;;;;;;;;;;;;;;;;;;5069547;28;19912;-41
2022/07/12 08:28:40;;;;;;;;;;;;;;;;;;5069662;28;20397;-41
2022/07/12 08:31:06;;;;;;;;;;;;;;;;;;5069491;28;19916;-41
2022/07/12 08:33:32;;;;;;;;;;;;;;;;;;5058611;28;19952;-41
2022/07/12 08:35:58;;;;;;;;;;;;;;;;;;5058715;28;20288;-41
2022/07/12 08:38:24;;;;;;;;;;;;;;;;;;5051907;28;20036;-41
2022/07/12 08:40:50;;;;;;;;;;;;;;;;;;5049095;28;20016;-41
2022/07/12 08:43:17;;;;;;;;;;;;;;;;;;5048710;28;20357;-41
2022/07/12 08:45:43;;;;;;;;;;;;;;;;;;5049053;28;19913;-41
2022/07/12 08:48:09;;;;;;;;;;;;;;;;;;5051996;28;19913;-41
2022/07/12 08:50:34;;;;;;;;;;;;;;;;;;5068925;28;20443;-41
2022/07/12 08:53:00;;;;;;;;;;;;;;;;;;5068885;28;19999;-41
2022/07/12 08:55:26;;;;;;;;;;;;;;;;;;5068575;28;19913;-41
2022/07/12 08:57:52;;;;;;;;;;;;;;;;;;5068399;28;20043;-41
2022/07/12 09:00:19;;;;;;;;;;;;;;;;;;5068854;28;19912;-42
2022/07/12 09:02:45;;;;;;;;;;;;;;;;;;5067275;28;19920;-42
2022/07/12 09:05:11;;;;;;;;;;;;;;;;;;5068929;28;19909;-41
2022/07/12 09:07:37;;;;;;;;;;;;;;;;;;5068329;28;19909;-41
2022/07/12 09:10:03;;;;;;;;;;;;;;;;;;5068589;28;19982;-42
2022/07/12 09:12:30;;;;;;;;;;;;;;;;;;5067957;28;19908;-42
2022/07/12 09:14:55;;;;;;;;;;;;;;;;;;5049168;28;19970;-41
2022/07/12 09:17:21;;;;;;;;;;;;;;;;;;5052465;28;19909;-42
2022/07/12 09:19:48;;;;;;;;;;;;;;;;;;5067795;28;19919;-42
2022/07/12 09:22:14;;;;;;;;;;;;;;;;;;5064620;28;19916;-41
2022/07/12 09:24:40;;;;;;;;;;;;;;;;;;5068015;28;19967;-42
2022/07/12 09:27:07;;;;;;;;;;;;;;;;;;5068340;28;19912;-41
2022/07/12 09:29:34;;;;;;;;;;;;;;;;;;5067656;28;20015;-43
2022/07/12 09:37:30;;;;;;;;;;;;;;;;;;5067756;28;19915;-44
2022/07/12 09:39:56;;;;;;;;;;;;;;;;;;5068182;28;20380;-46
2022/07/12 09:42:22;;;;;;;;;;;;;;;;;;5068784;28;20016;-43
2022/07/12 09:44:48;;;;;;;;;;;;;;;;;;5069023;28;19988;-48
2022/07/12 09:47:15;;;;;;;;;;;;;;;;;;5069556;28;20291;-46
2022/07/12 09:49:41;;;;;;;;;;;;;;;;;;5069259;28;19912;-46
2022/07/12 09:52:07;;;;;;;;;;;;;;;;;;5069290;28;20402;-45
2022/07/12 09:54:33;;;;;;;;;;;;;;;;;;5068885;28;19916;-44
2022/07/12 09:56:59;;;;;;;;;;;;;;;;;;5068940;28;19912;-45
2022/07/12 09:59:25;;;;;;;;;;;;;;;;;;5069269;28;19955;-44
2022/07/12 10:01:52;;;;;;;;;;;;;;;;;;5069125;28;19956;-44
2022/07/12 10:04:18;;;;;;;;;;;;;;;;;;5068957;28;20391;-46
2022/07/12 10:06:44;;;;;;;;;;;;;;;;;;5069034;28;19913;-44
2022/07/12 10:09:10;;;;;;;;;;;;;;;;;;5069124;28;19978;-47
2022/07/12 10:11:35;;;;;;;;;;;;;;;;;;5068675;28;19912;-45
2022/07/12 10:14:02;;;;;;;;;;;;;;;;;;5068760;28;19958;-44
2022/07/12 10:16:28;;;;;;;;;;;;;;;;;;5068733;28;19932;-47
2022/07/12 10:18:54;;;;;;;;;;;;;;;;;;5068670;28;20306;-46
2022/07/12 10:21:20;;;;;;;;;;;;;;;;;;5069105;28;19908;-46
2022/07/12 10:23:46;;;;;;;;;;;;;;;;;;5064317;28;19947;-45
2022/07/12 10:26:12;;;;;;;;;;;;;;;;;;5069123;28;19951;-44
2022/07/12 10:28:38;;;;;;;;;;;;;;;;;;5068181;28;19919;-44
2022/07/12 10:31:04;;;;;;;;;;;;;;;;;;5067889;28;19916;-46
2022/07/12 10:33:30;;;;;;;;;;;;;;;;;;5068969;28;19915;-46
2022/07/12 10:35:56;;;;;;;;;;;;;;;;;;5071963;28;19924;-45
2022/07/12 10:38:22;;;;;;;;;;;;;;;;;;5071365;28;19913;-43
2022/07/12 10:40:48;;;;;;;;;;;;;;;;;;5064840;28;19917;-44
2022/07/12 10:43:15;;;;;;;;;;;;;;;;;;5057650;28;19924;-44
2022/07/12 10:45:41;;;;;;;;;;;;;;;;;;5071454;28;19936;-44
2022/07/12 10:48:07;;;;;;;;;;;;;;;;;;5071541;28;19966;-44
2022/07/12 10:50:32;;;;;;;;;;;;;;;;;;5071691;28;20455;-44
2022/07/12 10:52:58;;;;;;;;;;;;;;;;;;5071006;28;19935;-44
2022/07/12 10:55:25;;;;;;;;;;;;;;;;;;5070901;28;19912;-44
2022/07/12 10:57:51;;;;;;;;;;;;;;;;;;5060407;28;19977;-44
2022/07/12 11:00:18;;;;;;;;;;;;;;;;;;5070382;28;19921;-43
2022/07/12 11:02:44;;;;;;;;;;;;;;;;;;5070529;28;20007;-46
2022/07/12 11:05:09;;;;;;;;;;;;;;;;;;5071018;28;20330;-45
2022/07/12 11:07:35;;;;;;;;;;;;;;;;;;5069802;28;19916;-44
2022/07/12 11:10:02;;;;;;;;;;;;;;;;;;5070244;28;19948;-45
2022/07/12 11:12:29;;;;;;;;;;;;;;;;;;5069607;28;19958;-47
2022/07/12 11:14:55;;;;;;;;;;;;;;;;;;5070616;28;19916;-45
2022/07/12 11:17:21;;;;;;;;;;;;;;;;;;5070333;28;20308;-44
2022/07/12 11:19:47;;;;;;;;;;;;;;;;;;5070368;28;19935;-45
2022/07/12 11:22:13;;;;;;;;;;;;;;;;;;5070756;28;19908;-44
2022/07/12 11:24:39;;;;;;;;;;;;;;;;;;5070130;28;19909;-44
2022/07/12 11:27:05;;;;;;;;;;;;;;;;;;5069594;28;20016;-45
2022/07/12 11:29:31;;;;;;;;;;;;;;;;;;5069515;28;19912;-46
2022/07/12 11:31:57;;;;;;;;;;;;;;;;;;5069415;28;19967;-47
2022/07/12 11:34:23;;;;;;;;;;;;;;;;;;5069203;28;19944;-45
2022/07/12 11:36:49;;;;;;;;;;;;;;;;;;5068675;28;20282;-48
2022/07/12 11:39:15;;;;;;;;;;;;;;;;;;5069225;28;19915;-47
2022/07/12 11:41:40;;;;;;;;;;;;;;;;;;5068913;28;19920;-45
2022/07/12 11:44:06;;;;;;;;;;;;;;;;;;5068691;28;20167;-44
2022/07/12 11:46:33;;;;;;;;;;;;;;;;;;5069086;28;19912;-47
2022/07/12 11:48:59;;;;;;;;;;;;;;;;;;5069191;28;19908;-44
2022/07/12 11:51:25;;;;;;;;;;;;;;;;;;5068776;28;19981;-45
2022/07/12 11:53:51;;;;;;;;;;;;;;;;;;5069172;28;19913;-46
2022/07/12 11:56:18;;;;;;;;;;;;;;;;;;5068484;28;19966;-45
2022/07/12 11:58:44;;;;;;;;;;;;;;;;;;5068497;28;19974;-45
2022/07/12 12:01:10;;;;;;;;;;;;;;;;;;5068464;28;20405;-45
2022/07/12 12:03:37;;;;;;;;;;;;;;;;;;5068251;28;19909;-43
2022/07/12 12:06:03;;;;;;;;;;;;;;;;;;5068689;28;19915;-44
2022/07/12 12:08:29;;;;;;;;;;;;;;;;;;5068201;28;19932;-42
2022/07/12 12:10:55;;;;;;;;;;;;;;;;;;5067154;28;19935;-46
2022/07/12 12:13:21;;;;;;;;;;;;;;;;;;5062523;28;20398;-46
2022/07/12 12:15:47;;;;;;;;;;;;;;;;;;5056458;28;19920;-43
2022/07/12 12:18:13;;;;;;;;;;;;;;;;;;5062846;28;19919;-44
2022/07/12 12:20:41;;;;;;;;;;;;;;;;;;5069642;28;19918;-45
2022/07/12 12:23:07;;;;;;;;;;;;;;;;;;5069926;28;20377;-45
2022/07/12 12:25:33;;;;;;;;;;;;;;;;;;5069918;28;20767;-45
2022/07/12 12:28:02;;;;;;;;;;;;;;;;;;5069369;28;19935;-44
2022/07/12 12:30:27;;;;;;;;;;;;;;;;;;5067944;28;19986;-43
2022/07/12 12:32:54;;;;;;;;;;;;;;;;;;5069638;28;19917;-44
2022/07/12 12:35:20;;;;;;;;;;;;;;;;;;5068229;28;19936;-45
2022/07/12 12:37:46;;;;;;;;;;;;;;;;;;5051348;28;20380;-44
2022/07/12 12:40:12;;;;;;;;;;;;;;;;;;5069617;28;19919;-43
2022/07/12 12:42:38;;;;;;;;;;;;;;;;;;5068282;28;19917;-46
2022/07/12 12:45:04;;;;;;;;;;;;;;;;;;5067790;28;19916;-43
2022/07/12 12:47:30;;;;;;;;;;;;;;;;;;5067690;28;19954;-44
2022/07/12 12:50:02;;;;;;;;;;;;;;;;;;5069256;28;20527;-43
2022/07/12 12:52:28;;;;;;;;;;;;;;;;;;5069026;28;20417;-45
2022/07/12 12:54:54;;;;;;;;;;;;;;;;;;5069511;28;19983;-46
2022/07/12 12:57:20;;;;;;;;;;;;;;;;;;5068581;28;19908;-43
2022/07/12 12:59:46;;;;;;;;;;;;;;;;;;5068804;28;19912;-44
2022/07/12 13:02:12;;;;;;;;;;;;;;;;;;5068395;28;20399;-44
2022/07/12 13:04:38;;;;;;;;;;;;;;;;;;5068739;28;19923;-43
2022/07/12 13:07:05;;;;;;;;;;;;;;;;;;5069143;28;19905;-44
2022/07/12 13:09:31;;;;;;;;;;;;;;;;;;5067836;28;19971;-42
2022/07/12 13:11:57;;;;;;;;;;;;;;;;;;5068241;28;19920;-42
2022/07/12 13:14:24;;;;;;;;;;;;;;;;;;5068750;28;20419;-42
2022/07/12 13:16:50;;;;;;;;;;;;;;;;;;5068297;28;19909;-43
2022/07/12 13:19:16;;;;;;;;;;;;;;;;;;5067528;28;19931;-43
2022/07/12 13:21:42;;;;;;;;;;;;;;;;;;5068702;28;19916;-46
2022/07/12 13:24:07;;;;;;;;;;;;;;;;;;5068691;28;19917;-42
2022/07/12 13:26:33;;;;;;;;;;;;;;;;;;5068340;28;19908;-44
2022/07/12 13:28:59;;;;;;;;;;;;;;;;;;5067758;28;19908;-43
2022/07/12 13:31:26;;;;;;;;;;;;;;;;;;5068221;28;19918;-43
2022/07/12 13:33:52;;;;;;;;;;;;;;;;;;5068593;28;19909;-45
2022/07/12 13:36:18;;;;;;;;;;;;;;;;;;5068838;28;19920;-45
2022/07/12 13:38:44;;;;;;;;;;;;;;;;;;5068200;28;19909;-45
2022/07/12 13:41:09;;;;;;;;;;;;;;;;;;5068369;28;20310;-46
2022/07/12 13:43:36;;;;;;;;;;;;;;;;;;5068167;28;19915;-47
2022/07/12 13:46:02;;;;;;;;;;;;;;;;;;5067485;28;19919;-43
2022/07/12 13:48:28;;;;;;;;;;;;;;;;;;5068259;28;19917;-44
2022/07/12 13:50:54;;;;;;;;;;;;;;;;;;5067442;28;20356;-42
2022/07/12 13:53:20;;;;;;;;;;;;;;;;;;5068525;28;19908;-46
2022/07/12 13:55:46;;;;;;;;;;;;;;;;;;5068312;28;19959;-43
2022/07/12 13:58:13;;;;;;;;;;;;;;;;;;5068423;28;19955;-46
2022/07/12 14:00:40;;;;;;;;;;;;;;;;;;5067314;28;20007;-44
2022/07/12 14:03:06;;;;;;;;;;;;;;;;;;5068069;28;19962;-44
2022/07/12 14:05:32;;;;;;;;;;;;;;;;;;5067337;28;19912;-44
2022/07/12 14:07:58;;;;;;;;;;;;;;;;;;5069451;28;19920;-45
2022/07/12 14:10:25;;;;;;;;;;;;;;;;;;5072371;28;19912;-42
2022/07/12 14:12:51;;;;;;;;;;;;;;;;;;5069804;28;19963;-42
2022/07/12 14:15:36;;;;;;;;;;;;;;;;;;5051795;28;19944;-46
2022/07/12 14:18:01;;;;;;;;;;;;;;;;;;5070870;28;20296;-43
2022/07/12 14:20:30;;;;;;;;;;;;;;;;;;5070709;28;19912;-44
2022/07/12 14:22:56;;;;;;;;;;;;;;;;;;5070553;28;19909;-43
2022/07/12 14:25:22;;;;;;;;;;;;;;;;;;5071013;28;20041;-45
2022/07/12 14:27:47;;;;;;;;;;;;;;;;;;5070383;28;20478;-44
2022/07/12 14:30:13;;;;;;;;;;;;;;;;;;5070618;28;19916;-45
2022/07/12 14:32:40;;;;;;;;;;;;;;;;;;5070116;28;19908;-48
2022/07/12 14:35:06;;;;;;;;;;;;;;;;;;5070302;28;19924;-46
2022/07/12 14:37:32;;;;;;;;;;;;;;;;;;5070201;28;19909;-45
2022/07/12 14:39:58;;;;;;;;;;;;;;;;;;5070251;28;20003;-45
2022/07/12 14:42:24;;;;;;;;;;;;;;;;;;5070061;28;20497;-47
2022/07/12 14:44:50;;;;;;;;;;;;;;;;;;5069934;28;19916;-44
2022/07/12 14:47:18;;;;;;;;;;;;;;;;;;5070613;28;19912;-45
2022/07/12 14:49:44;;;;;;;;;;;;;;;;;;5070021;28;19996;-43
2022/07/12 14:52:10;;;;;;;;;;;;;;;;;;5070017;28;20003;-42
2022/07/12 14:54:36;;;;;;;;;;;;;;;;;;5069429;28;19915;-43
2022/07/12 14:57:02;;;;;;;;;;;;;;;;;;5069724;28;19913;-43
2022/07/12 14:59:28;;;;;;;;;;;;;;;;;;5069746;28;20292;-44
2022/07/12 15:01:54;;;;;;;;;;;;;;;;;;5069969;28;19912;-43
2022/07/12 15:04:20;;;;;;;;;;;;;;;;;;5069732;28;19908;-43
2022/07/12 15:06:46;;;;;;;;;;;;;;;;;;5069669;28;19912;-43
2022/07/12 15:09:12;;;;;;;;;;;;;;;;;;5069584;28;20326;-43
2022/07/12 15:11:39;;;;;;;;;;;;;;;;;;5069342;28;20485;-42
2022/07/12 15:14:05;;;;;;;;;;;;;;;;;;5069572;28;19919;-42
2022/07/12 15:16:31;;;;;;;;;;;;;;;;;;5069808;28;20336;-44
2022/07/12 15:18:57;;;;;;;;;;;;;;;;;;5068675;28;19919;-43
2022/07/12 15:21:23;;;;;;;;;;;;;;;;;;5069763;28;19938;-42
2022/07/12 15:23:49;;;;;;;;;;;;;;;;;;5069039;28;19912;-42
2022/07/12 15:26:15;;;;;;;;;;;;;;;;;;5069466;28;19958;-43
2022/07/12 15:28:42;;;;;;;;;;;;;;;;;;5069475;28;19955;-43
2022/07/12 15:31:08;;;;;;;;;;;;;;;;;;5069617;28;20296;-44
2022/07/12 15:33:34;;;;;;;;;;;;;;;;;;5068963;28;19965;-42
2022/07/12 15:36:00;;;;;;;;;;;;;;;;;;5069574;28;19936;-43
2022/07/12 15:38:27;;;;;;;;;;;;;;;;;;5068883;28;20398;-43
2022/07/12 15:40:53;;;;;;;;;;;;;;;;;;5069461;28;20413;-42
2022/07/12 15:43:20;;;;;;;;;;;;;;;;;;5068983;28;19954;-43
2022/07/12 15:45:47;;;;;;;;;;;;;;;;;;5069056;28;19913;-42
2022/07/12 15:48:13;;;;;;;;;;;;;;;;;;5068308;28;19908;-42
2022/07/12 15:50:39;;;;;;;;;;;;;;;;;;5050419;28;19960;-44
2022/07/12 15:55:50;;;;;;;;;;;;;;;;;;5068495;28;20012;-42
2022/07/12 15:58:16;;;;;;;;;;;;;;;;;;5068824;28;20382;-43
2022/07/12 16:00:43;;;;;;;;;;;;;;;;;;5068603;28;19917;-42
2022/07/12 16:03:09;;;;;;;;;;;;;;;;;;5068595;28;20418;-44
2022/07/12 16:05:35;;;;;;;;;;;;;;;;;;5068576;28;19913;-43
2022/07/12 16:08:02;;;;;;;;;;;;;;;;;;5069123;28;20434;-46
2022/07/12 16:10:29;;;;;;;;;;;;;;;;;;5068753;28;20283;-43
2022/07/12 16:12:55;;;;;;;;;;;;;;;;;;5068370;28;19917;-43
2022/07/12 16:15:21;;;;;;;;;;;;;;;;;;5050432;28;20331;-45
2022/07/12 16:17:47;;;;;;;;;;;;;;;;;;5068415;28;19963;-44
2022/07/12 16:20:13;;;;;;;;;;;;;;;;;;5068346;28;19913;-46
2022/07/12 16:22:38;;;;;;;;;;;;;;;;;;5068240;28;19918;-43
2022/07/12 16:25:05;;;;;;;;;;;;;;;;;;5068044;28;20045;-42
2022/07/12 16:27:31;;;;;;;;;;;;;;;;;;5068333;28;20003;-44
2022/07/12 16:29:58;;;;;;;;;;;;;;;;;;5068043;28;20363;-44
2022/07/12 16:32:25;;;;;;;;;;;;;;;;;;5067408;28;19939;-43
2022/07/12 16:34:51;;;;;;;;;;;;;;;;;;5067925;28;19919;-43
2022/07/12 16:37:17;;;;;;;;;;;;;;;;;;5067934;28;19931;-46
2022/07/12 16:39:43;;;;;;;;;;;;;;;;;;5067413;28;20430;-43
2022/07/12 16:42:09;;;;;;;;;;;;;;;;;;5068142;28;19939;-44
2022/07/12 16:44:34;;;;;;;;;;;;;;;;;;5067664;28;19982;-43
2022/07/12 16:47:00;;;;;;;;;;;;;;;;;;5068221;28;19955;-46
2022/07/12 16:49:26;;;;;;;;;;;;;;;;;;5067320;28;19939;-42
2022/07/12 16:51:52;;;;;;;;;;;;;;;;;;5067977;28;19930;-43